Dades meteomassalio
Diari Summary for Febrer 25, 2018 Units:  English    Metric   Both
« Previous Day
Next Day »
Diari Semanal Mensual Anual Personalitzat
  Maxima: Minima: Mijana:
Temperatura: TemperatureC °F -5.0 °F 3.4 °F
Rosada: DewpointC °F -10.8 °F -3.8 °F
Humitat: Humidity % 35 % 63 %
Velocitat del vent: WindSpeedKMH mph 0.0 mph 6.8 mph
Racha vent: WindSpeedGustKMH mph - -
Vent:- - WSW
Pressio: PressurehPa in 1012.4 in -
Pluja: 0.0 in    
Historical Graphs
 
 
Tabular Data for Febrer 25, 2018
Time Temperature Dew Point Pressure Wind Wind Speed Wind Gust Humidity Rainfall Rate (Hourly) solar Conditions
TemperatureC °F DewpointC °F PressurehPa in Calm     Humidity % HourlyPrecipMM in SolarRadiationWatts/m^2 W/m2 Conditions
00:01 -2.8 °F -5.1 °F 1014.1 in Calm     84 % 0.0 in 0.0 W/m2 CLR
00:06 -2.8 °F -5.1 °F 1014.1 in Calm     84 % 0.0 in 0.0 W/m2 CLR
00:11 -2.8 °F -5.1 °F 1014.1 in Calm     84 % 0.0 in 0.0 W/m2 CLR
00:16 -2.8 °F -5.1 °F 1013.8 in Calm     84 % 0.0 in 0.0 W/m2 CLR
00:21 -2.8 °F -4.9 °F 1014.1 in Calm     85 % 0.0 in 0.0 W/m2 CLR
00:27 -2.2 °F -4.4 °F 1014.1 in Calm     85 % 0.0 in 0.0 W/m2 CLR
00:32 -2.2 °F -4.4 °F 1014.1 in Calm     85 % 0.0 in 0.0 W/m2 CLR
00:37 -2.8 °F -5.1 °F 1014.1 in Calm     84 % 0.0 in 0.0 W/m2 CLR
00:42 -2.8 °F -4.9 °F 1014.1 in Calm     85 % 0.0 in 0.0 W/m2 CLR
00:47 -2.8 °F -4.9 °F 1014.1 in Calm     85 % 0.0 in 0.0 W/m2 CLR
00:52 -2.8 °F -4.9 °F 1014.1 in Calm     85 % 0.0 in 0.0 W/m2 CLR
00:57 -2.8 °F -4.9 °F 1014.1 in Calm     85 % 0.0 in 0.0 W/m2 CLR
01:02 -2.8 °F -4.9 °F 1014.1 in Calm     85 % 0.0 in 0.0 W/m2 CLR
01:08 -2.8 °F -4.8 °F 1014.1 in Calm     86 % 0.0 in 0.0 W/m2 CLR
01:13 -3.3 °F -5.3 °F 1014.1 in Calm     86 % 0.0 in 0.0 W/m2 CLR
01:18 -3.3 °F -5.3 °F 1014.1 in Calm     86 % 0.0 in 0.0 W/m2 CLR
01:23 -3.3 °F -5.3 °F 1014.1 in Calm     86 % 0.0 in 0.0 W/m2 CLR
01:28 -3.3 °F -5.3 °F 1013.8 in Calm     86 % 0.0 in 0.0 W/m2 CLR
01:33 -3.3 °F -5.3 °F 1014.1 in Calm     86 % 0.0 in 0.0 W/m2 CLR
01:38 -3.3 °F -5.3 °F 1013.8 in Calm     86 % 0.0 in 0.0 W/m2 CLR
01:43 -3.3 °F -5.3 °F 1013.8 in Calm     86 % 0.0 in 0.0 W/m2 CLR
01:48 -3.3 °F -5.3 °F 1014.1 in Calm     86 % 0.0 in 0.0 W/m2 CLR
01:53 -3.3 °F -5.3 °F 1014.1 in Calm     86 % 0.0 in 0.0 W/m2 CLR
01:58 -3.3 °F -5.3 °F 1014.1 in Calm     86 % 0.0 in 0.0 W/m2 CLR
02:03 -3.3 °F -5.3 °F 1014.1 in Calm     86 % 0.0 in 0.0 W/m2 CLR
02:08 -3.3 °F -5.3 °F 1014.1 in Calm     86 % 0.0 in 0.0 W/m2 CLR
02:13 -3.3 °F -5.2 °F 1014.1 in Calm     87 % 0.0 in 0.0 W/m2 CLR
02:18 -3.3 °F -5.2 °F 1014.1 in Calm     87 % 0.0 in 0.0 W/m2 CLR
02:23 -3.3 °F -5.2 °F 1014.1 in Calm     87 % 0.0 in 0.0 W/m2 CLR
02:28 -3.3 °F -5.2 °F 1014.1 in Calm     87 % 0.0 in 0.0 W/m2 CLR
02:33 -3.3 °F -5.2 °F 1014.1 in Calm     87 % 0.0 in 0.0 W/m2 CLR
02:38 -3.3 °F -5.2 °F 1014.4 in Calm     87 % 0.0 in 0.0 W/m2 CLR
02:43 -3.3 °F -5.2 °F 1014.4 in Calm     87 % 0.0 in 0.0 W/m2 CLR
02:48 -3.3 °F -5.2 °F 1014.4 in Calm     87 % 0.0 in 0.0 W/m2 CLR
02:53 -3.3 °F -5.2 °F 1014.4 in Calm     87 % 0.0 in 0.0 W/m2 CLR
02:58 -3.3 °F -5.2 °F 1014.4 in Calm     87 % 0.0 in 0.0 W/m2 CLR
03:03 -3.9 °F -5.6 °F 1014.4 in Calm     88 % 0.0 in 0.0 W/m2 CLR
03:08 -3.9 °F -5.6 °F 1014.4 in Calm     88 % 0.0 in 0.0 W/m2 CLR
03:13 -3.9 °F -5.7 °F 1014.4 in Calm     87 % 0.0 in 0.0 W/m2 CLR
03:18 -3.9 °F -5.6 °F 1014.4 in Calm     88 % 0.0 in 0.0 W/m2 CLR
03:23 -3.9 °F -5.6 °F 1014.4 in Calm     88 % 0.0 in 0.0 W/m2 CLR
03:28 -3.9 °F -5.6 °F 1014.4 in Calm     88 % 0.0 in 0.0 W/m2 CLR
03:33 -3.9 °F -5.6 °F 1014.4 in Calm     88 % 0.0 in 0.0 W/m2 CLR
03:38 -3.3 °F -5.1 °F 1014.4 in Calm     88 % 0.0 in 0.0 W/m2 CLR
03:43 -3.3 °F -5.1 °F 1014.4 in Calm     88 % 0.0 in 0.0 W/m2 CLR
03:48 -3.3 °F -5.1 °F 1014.4 in Calm     88 % 0.0 in 0.0 W/m2 CLR
03:53 -3.9 °F -5.4 °F 1014.4 in Calm     89 % 0.0 in 0.0 W/m2 CLR
03:58 -3.9 °F -5.4 °F 1014.4 in Calm     89 % 0.0 in 0.0 W/m2 CLR
04:03 -3.9 °F -5.4 °F 1014.4 in Calm     89 % 0.0 in 0.0 W/m2 CLR
04:08 -3.9 °F -5.6 °F 1014.4 in Calm     88 % 0.0 in 0.0 W/m2 CLR
04:13 -3.9 °F -5.6 °F 1014.4 in Calm     88 % 0.0 in 0.0 W/m2 CLR
04:18 -3.9 °F -5.4 °F 1014.4 in Calm     89 % 0.0 in 0.0 W/m2 CLR
04:23 -3.9 °F -5.6 °F 1014.4 in Calm     88 % 0.0 in 0.0 W/m2 CLR
04:28 -3.9 °F -5.6 °F 1014.4 in Calm     88 % 0.0 in 0.0 W/m2 CLR
04:33 -3.9 °F -5.4 °F 1014.4 in Calm     89 % 0.0 in 0.0 W/m2 CLR
04:38 -3.9 °F -5.4 °F 1014.4 in Calm     89 % 0.0 in 0.0 W/m2 CLR
04:43 -4.4 °F -6.0 °F 1014.4 in Calm     89 % 0.0 in 0.0 W/m2 CLR
04:48 -4.4 °F -6.0 °F 1014.4 in Calm     89 % 0.0 in 0.0 W/m2 CLR
04:53 -4.4 °F -6.0 °F 1014.4 in Calm     89 % 0.0 in 0.0 W/m2 CLR
04:58 -4.4 °F -6.0 °F 1014.4 in Calm     89 % 0.0 in 0.0 W/m2 CLR
05:03 -4.4 °F -6.0 °F 1014.4 in Calm     89 % 0.0 in 0.0 W/m2 CLR
05:08 -4.4 °F -6.0 °F 1014.4 in Calm     89 % 0.0 in 0.0 W/m2 CLR
05:13 -4.4 °F -6.0 °F 1014.4 in Calm     89 % 0.0 in 0.0 W/m2 CLR
05:19 -5.0 °F -6.6 °F 1014.4 in Calm     89 % 0.0 in 0.0 W/m2 CLR
05:23 -4.4 °F -6.0 °F 1014.4 in Calm     89 % 0.0 in 0.0 W/m2 CLR
05:29 -4.4 °F -6.0 °F 1014.4 in Calm     89 % 0.0 in 0.0 W/m2 CLR
05:34 -4.4 °F -6.0 °F 1014.4 in Calm     89 % 0.0 in 0.0 W/m2 CLR
05:39 -4.4 °F -6.0 °F 1014.4 in Calm     89 % 0.0 in 0.0 W/m2 CLR
05:44 -4.4 °F -6.0 °F 1014.4 in Calm     89 % 0.0 in 0.0 W/m2 CLR
05:49 -4.4 °F -6.0 °F 1014.4 in Calm     89 % 0.0 in 0.0 W/m2 CLR
05:54 -4.4 °F -6.0 °F 1014.4 in Calm     89 % 0.0 in 0.0 W/m2 CLR
05:59 -4.4 °F -6.0 °F 1014.4 in Calm     89 % 0.0 in 0.0 W/m2 CLR
06:04 -4.4 °F -6.0 °F 1014.4 in Calm     89 % 0.0 in 0.0 W/m2 CLR
06:09 -3.9 °F -5.4 °F 1014.4 in Calm     89 % 0.0 in 0.0 W/m2 CLR
06:14 -3.9 °F -5.4 °F 1014.8 in Calm     89 % 0.0 in 0.0 W/m2 CLR
06:19 -3.9 °F -5.4 °F 1014.4 in Calm     89 % 0.0 in 0.0 W/m2 CLR
06:24 -4.4 °F -5.8 °F 1014.8 in Calm     90 % 0.0 in 0.0 W/m2 CLR
06:29 -3.9 °F -5.4 °F 1014.8 in Calm     89 % 0.0 in 0.0 W/m2 CLR
06:34 -4.4 °F -6.0 °F 1014.8 in Calm     89 % 0.0 in 0.0 W/m2 CLR
06:39 -4.4 °F -6.0 °F 1014.8 in Calm     89 % 0.0 in 0.0 W/m2 CLR
06:44 -4.4 °F -6.0 °F 1014.8 in Calm     89 % 0.0 in 0.0 W/m2 CLR
06:49 -4.4 °F -6.0 °F 1014.8 in Calm     89 % 0.0 in 0.0 W/m2 CLR
06:54 -3.9 °F -5.4 °F 1014.8 in Calm     89 % 0.0 in 0.0 W/m2 CLR
06:59 -3.9 °F -5.4 °F 1014.8 in Calm     89 % 0.0 in 0.0 W/m2 CLR
07:04 -3.9 °F -5.4 °F 1014.8 in Calm     89 % 0.0 in 0.0 W/m2 CLR
07:09 -3.9 °F -5.4 °F 1014.8 in Calm     89 % 0.0 in 0.0 W/m2 CLR
07:14 -3.9 °F -5.4 °F 1014.8 in Calm     89 % 0.0 in 0.0 W/m2 CLR
07:19 -3.9 °F -5.4 °F 1014.8 in Calm     89 % 0.0 in 0.0 W/m2 CLR
07:24 -3.9 °F -5.4 °F 1014.8 in Calm     89 % 0.0 in 0.0 W/m2 CLR
07:29 -4.4 °F -6.0 °F 1014.8 in Calm     89 % 0.0 in 0.0 W/m2 CLR
07:30 -3.9 °F -5.4 °F 1014.8 in Calm     89 % 0.0 in 0.0 W/m2 CLR
07:35 -3.9 °F -5.4 °F 1014.8 in Calm     89 % 0.0 in 0.0 W/m2 OVC
07:40 -4.4 °F -5.8 °F 1014.8 in Calm     90 % 0.0 in 0.0 W/m2 OVC
07:45 -4.4 °F -6.0 °F 1014.8 in Calm     89 % 0.0 in 7.0 W/m2 BKN
07:50 -4.4 °F -5.8 °F 1014.8 in Calm     90 % 0.0 in 11.0 W/m2 BKN
07:55 -4.4 °F -6.0 °F 1014.8 in Calm     89 % 0.0 in 14.0 W/m2 BKN
08:00 -4.4 °F -6.0 °F 1014.8 in Calm     89 % 0.0 in 18.0 W/m2 BKN
08:05 -4.4 °F -6.0 °F 1014.8 in Calm     89 % 0.0 in 21.0 W/m2 BKN
08:10 -4.4 °F -6.0 °F 1014.8 in Calm     89 % 0.0 in 28.0 W/m2 BKN
08:15 -3.9 °F -5.4 °F 1014.8 in Calm     89 % 0.0 in 35.0 W/m2 BKN
08:20 -3.9 °F -5.3 °F 1014.8 in Calm     90 % 0.0 in 47.0 W/m2 SCT
08:25 -3.9 °F -5.4 °F 1014.8 in Calm     89 % 0.0 in 54.0 W/m2 SCT
08:30 -3.3 °F -4.9 °F 1015.1 in Calm     89 % 0.0 in 76.0 W/m2 FEW
08:35 -3.3 °F -4.9 °F 1015.1 in Calm     89 % 0.0 in 90.0 W/m2 CLR
08:40 -3.3 °F -4.9 °F 1015.1 in Calm     89 % 0.0 in 107.0 W/m2 CLR
08:45 -2.8 °F -4.3 °F 1015.5 in Calm     89 % 0.0 in 132.0 W/m2 CLR
08:50 -2.8 °F -4.3 °F 1015.1 in Calm     89 % 0.0 in 127.0 W/m2 CLR
08:55 -2.2 °F -3.8 °F 1015.5 in Calm     89 % 0.0 in 142.0 W/m2 CLR
09:00 -2.2 °F -3.9 °F 1015.5 in Calm     88 % 0.0 in 116.0 W/m2 CLR
09:05 -1.7 °F -3.4 °F 1015.5 in Calm     88 % 0.0 in 172.0 W/m2 CLR
09:10 -1.7 °F -3.6 °F 1015.1 in Calm     87 % 0.0 in 188.0 W/m2 CLR
09:15 -1.1 °F -3.3 °F 1015.5 in Calm     85 % 0.0 in 202.0 W/m2 CLR
09:20 -0.6 °F -2.8 °F 1015.5 in Calm     85 % 0.0 in 214.0 W/m2 CLR
09:25 -0.6 °F -2.8 °F 1015.5 in Calm     85 % 0.0 in 230.0 W/m2 CLR
09:30 -0.6 °F -3.3 °F 1015.5 in Calm     82 % 0.0 in 246.0 W/m2 CLR
09:35 0.0 °F -3.1 °F 1015.5 in Calm     80 % 0.0 in 262.0 W/m2 CLR
09:40 0.6 °F -2.8 °F 1015.1 in Calm     78 % 0.0 in 279.0 W/m2 CLR
09:45 1.7 °F -1.9 °F 1015.5 in Calm     77 % 0.0 in 297.0 W/m2 CLR
09:50 2.8 °F -1.1 °F 1015.5 in Calm     76 % 0.0 in 315.0 W/m2 CLR
09:55 3.3 °F -0.7 °F 1015.5 in Calm     75 % 0.0 in 329.0 W/m2 CLR
10:00 3.9 °F -1.5 °F 1015.5 in WNW 18.5 mph 18.5 mph 68 % 0.0 in 348.0 W/m2 CLR
10:05 4.4 °F -1.3 °F 1015.5 in NW 6.4 mph 6.4 mph 66 % 0.0 in 364.0 W/m2 CLR
10:10 5.0 °F -1.4 °F 1015.5 in NW 14.8 mph 14.8 mph 63 % 0.0 in 376.0 W/m2 CLR
10:15 5.6 °F -0.9 °F 1015.5 in NNW 18.5 mph 18.5 mph 63 % 0.0 in 388.0 W/m2 CLR
10:20 6.1 °F -0.6 °F 1015.5 in NNW 8.0 mph 8.0 mph 62 % 0.0 in 403.0 W/m2 CLR
10:25 6.7 °F -0.3 °F 1015.5 in NW 16.7 mph 16.7 mph 61 % 0.0 in 417.0 W/m2 CLR
10:30 7.2 °F 0.2 °F 1015.5 in NW 16.7 mph 16.7 mph 61 % 0.0 in 431.0 W/m2 CLR
10:35 7.2 °F -0.1 °F 1015.5 in NNW 18.5 mph 18.5 mph 60 % 0.0 in 445.0 W/m2 CLR
10:40 7.2 °F -0.1 °F 1015.5 in NNW 14.8 mph 14.8 mph 60 % 0.0 in 457.0 W/m2 CLR
10:45 7.8 °F 0.0 °F 1015.5 in NW 14.8 mph 14.8 mph 58 % 0.0 in 468.0 W/m2 CLR
10:50 7.8 °F 0.3 °F 1015.5 in NW 11.1 mph 11.1 mph 59 % 0.0 in 480.0 W/m2 CLR
10:55 8.3 °F 0.6 °F 1015.5 in NNW 16.7 mph 16.7 mph 58 % 0.0 in 490.0 W/m2 CLR
11:00 8.3 °F 0.6 °F 1015.5 in NNW 16.1 mph 16.1 mph 58 % 0.0 in 501.0 W/m2 CLR
11:05 8.3 °F 0.6 °F 1015.5 in North 18.5 mph 18.5 mph 58 % 0.0 in 513.0 W/m2 CLR
11:10 8.9 °F 0.8 °F 1015.5 in NNW 18.5 mph 18.5 mph 57 % 0.0 in 524.0 W/m2 CLR
11:15 8.9 °F 0.8 °F 1015.5 in North 16.7 mph 16.7 mph 57 % 0.0 in 534.0 W/m2 CLR
11:20 9.4 °F 0.8 °F 1015.5 in North 18.5 mph 18.5 mph 55 % 0.0 in 541.0 W/m2 CLR
11:25 10.0 °F 1.4 °F 1015.5 in North 22.2 mph 22.2 mph 55 % 0.0 in 552.0 W/m2 CLR
11:30 10.0 °F 1.4 °F 1015.5 in NNW 16.7 mph 16.7 mph 55 % 0.0 in 564.0 W/m2 CLR
11:35 10.0 °F 1.1 °F 1015.5 in NNW 18.5 mph 18.5 mph 54 % 0.0 in 573.0 W/m2 CLR
11:40 10.0 °F 0.8 °F 1015.5 in North 18.5 mph 18.5 mph 53 % 0.0 in 582.0 W/m2 CLR
11:45 10.6 °F 1.6 °F 1015.5 in NNW 17.7 mph 17.7 mph 54 % 0.0 in 587.0 W/m2 CLR
11:51 10.6 °F 1.4 °F 1015.5 in NNW 19.3 mph 19.3 mph 53 % 0.0 in 596.0 W/m2 CLR
11:56 10.6 °F 1.4 °F 1015.5 in NNW 17.7 mph 17.7 mph 53 % 0.0 in 601.0 W/m2 CLR
12:01 10.6 °F 1.4 °F 1015.5 in NW 18.5 mph 18.5 mph 53 % 0.0 in 610.0 W/m2 CLR
12:06 10.6 °F 0.8 °F 1015.5 in NNW 18.5 mph 18.5 mph 51 % 0.0 in 612.0 W/m2 CLR
12:11 10.6 °F 1.1 °F 1015.5 in NW 11.1 mph 11.1 mph 52 % 0.0 in 621.0 W/m2 CLR
12:16 10.6 °F 1.1 °F 1015.5 in North 18.5 mph 18.5 mph 52 % 0.0 in 624.0 W/m2 CLR
12:21 11.1 °F 0.8 °F 1015.5 in NW 7.4 mph 7.4 mph 49 % 0.0 in 631.0 W/m2 CLR
12:26 11.1 °F 0.8 °F 1015.1 in NNW 16.7 mph 16.7 mph 49 % 0.0 in 635.0 W/m2 CLR
12:31 11.1 °F 0.8 °F 1015.1 in NNW 14.8 mph 14.8 mph 49 % 0.0 in 638.0 W/m2 CLR
12:36 11.7 °F 1.3 °F 1015.1 in Calm     49 % 0.0 in 643.0 W/m2 CLR
12:41 11.7 °F 1.6 °F 1015.1 in NNE 3.7 mph 3.7 mph 50 % 0.0 in 649.0 W/m2 CLR
12:46 11.7 °F 1.3 °F 1015.1 in North 18.5 mph 18.5 mph 49 % 0.0 in 654.0 W/m2 CLR
12:51 11.7 °F 1.6 °F 1015.1 in NNE 7.4 mph 7.4 mph 50 % 0.0 in 659.0 W/m2 CLR
12:56 11.1 °F 1.1 °F 1014.8 in North 14.8 mph 14.8 mph 50 % 0.0 in 650.0 W/m2 CLR
13:01 11.1 °F 1.1 °F 1014.8 in North 14.8 mph 14.8 mph 50 % 0.0 in 663.0 W/m2 CLR
13:06 11.7 °F 1.0 °F 1014.8 in NNE 18.5 mph 18.5 mph 48 % 0.0 in 659.0 W/m2 CLR
13:11 12.2 °F 1.5 °F 1014.8 in North 16.7 mph 16.7 mph 48 % 0.0 in 659.0 W/m2 CLR
13:16 12.8 °F 1.4 °F 1014.4 in WNW 13.0 mph 13.0 mph 46 % 0.0 in 664.0 W/m2 CLR
13:21 12.2 °F 0.6 °F 1014.4 in NNW 13.0 mph 13.0 mph 45 % 0.0 in 663.0 W/m2 CLR
13:26 12.2 °F 0.6 °F 1014.4 in NNW 20.4 mph 20.4 mph 45 % 0.0 in 661.0 W/m2 CLR
13:31 12.8 °F 0.8 °F 1014.4 in North 14.8 mph 14.8 mph 44 % 0.0 in 659.0 W/m2 CLR
13:36 12.8 °F 1.1 °F 1014.1 in North 18.5 mph 18.5 mph 45 % 0.0 in 663.0 W/m2 CLR
13:41 12.8 °F 0.8 °F 1014.1 in North 9.3 mph 9.3 mph 44 % 0.0 in 659.0 W/m2 CLR
13:46 12.8 °F 1.1 °F 1014.1 in NNE 13.0 mph 13.0 mph 45 % 0.0 in 664.0 W/m2 CLR
13:51 12.8 °F 0.8 °F 1014.1 in NW 11.3 mph 11.3 mph 44 % 0.0 in 654.0 W/m2 CLR
13:56 12.8 °F 0.2 °F 1013.8 in North 16.1 mph 16.1 mph 42 % 0.0 in 652.0 W/m2 CLR
14:01 12.8 °F 0.2 °F 1013.8 in NW 14.8 mph 14.8 mph 42 % 0.0 in 656.0 W/m2 CLR
14:06 12.8 °F -0.5 °F 1013.8 in NNW 16.7 mph 16.7 mph 40 % 0.0 in 645.0 W/m2 CLR
14:11 13.3 °F 0.3 °F 1013.8 in NNW 1.9 mph 1.9 mph 41 % 0.0 in 640.0 W/m2 CLR
14:16 13.9 °F 0.5 °F 1013.8 in North 18.5 mph 18.5 mph 40 % 0.0 in 633.0 W/m2 CLR
14:21 13.9 °F 0.2 °F 1013.8 in North 16.7 mph 16.7 mph 39 % 0.0 in 633.0 W/m2 CLR
14:26 13.9 °F 0.2 °F 1013.8 in NNW 14.8 mph 14.8 mph 39 % 0.0 in 624.0 W/m2 CLR
14:31 13.9 °F 0.5 °F 1013.4 in NNW 16.7 mph 16.7 mph 40 % 0.0 in 613.0 W/m2 CLR
14:36 13.9 °F 0.2 °F 1013.4 in NNW 13.0 mph 13.0 mph 39 % 0.0 in 612.0 W/m2 CLR
14:41 13.9 °F 0.5 °F 1013.4 in NNE 16.1 mph 16.1 mph 40 % 0.0 in 605.0 W/m2 CLR
14:46 13.3 °F -0.3 °F 1013.4 in North 18.5 mph 18.5 mph 39 % 0.0 in 596.0 W/m2 CLR
14:51 13.9 °F 0.5 °F 1013.4 in North 18.5 mph 18.5 mph 40 % 0.0 in 587.0 W/m2 CLR
14:56 13.9 °F 0.5 °F 1013.4 in NE 11.1 mph 11.1 mph 40 % 0.0 in 580.0 W/m2 CLR
15:01 13.9 °F 0.8 °F 1013.4 in NNW 18.5 mph 18.5 mph 41 % 0.0 in 570.0 W/m2 CLR
15:06 13.9 °F 0.5 °F 1013.4 in NE 13.0 mph 13.0 mph 40 % 0.0 in 555.0 W/m2 CLR
15:11 13.3 °F 0.3 °F 1013.4 in NNE 1.9 mph 1.9 mph 41 % 0.0 in 541.0 W/m2 CLR
15:16 13.3 °F 0.3 °F 1013.1 in NNE 18.5 mph 18.5 mph 41 % 0.0 in 538.0 W/m2 CLR
15:21 13.3 °F 0.3 °F 1013.1 in NNW 14.8 mph 14.8 mph 41 % 0.0 in 527.0 W/m2 CLR
15:26 13.3 °F 0.0 °F 1013.1 in ENE 1.9 mph 1.9 mph 40 % 0.0 in 515.0 W/m2 CLR
15:31 13.9 °F 0.5 °F 1013.1 in ENE 1.9 mph 1.9 mph 40 % 0.0 in 504.0 W/m2 CLR
15:36 13.3 °F 0.0 °F 1013.1 in North 20.4 mph 20.4 mph 40 % 0.0 in 499.0 W/m2 CLR
15:41 13.9 °F 0.2 °F 1013.1 in NNE 16.7 mph 16.7 mph 39 % 0.0 in 480.0 W/m2 CLR
15:46 13.9 °F 0.5 °F 1013.1 in NNE 18.5 mph 18.5 mph 40 % 0.0 in 475.0 W/m2 CLR
15:51 13.9 °F 0.2 °F 1013.1 in North 11.1 mph 11.1 mph 39 % 0.0 in 455.0 W/m2 CLR
15:56 13.9 °F 0.2 °F 1013.1 in North 18.5 mph 18.5 mph 39 % 0.0 in 448.0 W/m2 CLR
16:01 13.9 °F -0.6 °F 1013.1 in North 20.4 mph 20.4 mph 37 % 0.0 in 443.0 W/m2 CLR
16:06 14.4 °F -0.1 °F 1013.1 in North 22.2 mph 22.2 mph 37 % 0.0 in 424.0 W/m2 CLR
16:11 13.9 °F -0.2 °F 1013.1 in NNE 16.7 mph 16.7 mph 38 % 0.0 in 410.0 W/m2 CLR
16:16 14.4 °F -0.1 °F 1013.1 in North 20.9 mph 20.9 mph 37 % 0.0 in 401.0 W/m2 CLR
16:21 13.9 °F -0.6 °F 1013.1 in NNW 13.0 mph 13.0 mph 37 % 0.0 in 390.0 W/m2 CLR
16:26 13.9 °F -0.9 °F 1013.1 in North 18.5 mph 18.5 mph 36 % 0.0 in 373.0 W/m2 CLR
16:31 13.9 °F -0.9 °F 1013.1 in NNW 19.3 mph 19.3 mph 36 % 0.0 in 359.0 W/m2 CLR
16:36 13.9 °F -0.9 °F 1012.8 in NNW 20.4 mph 20.4 mph 36 % 0.0 in 345.0 W/m2 CLR
16:41 13.9 °F -0.9 °F 1012.8 in North 5.6 mph 5.6 mph 36 % 0.0 in 330.0 W/m2 CLR
16:46 13.9 °F -0.9 °F 1012.8 in North 20.4 mph 20.4 mph 36 % 0.0 in 316.0 W/m2 CLR
16:51 13.9 °F -0.9 °F 1012.8 in North 18.5 mph 18.5 mph 36 % 0.0 in 301.0 W/m2 CLR
16:56 13.9 °F -0.9 °F 1012.8 in NNE 16.1 mph 16.1 mph 36 % 0.0 in 285.0 W/m2 CLR
17:01 13.9 °F -0.9 °F 1012.8 in North 18.5 mph 18.5 mph 36 % 0.0 in 267.0 W/m2 CLR
17:06 13.9 °F -0.9 °F 1012.8 in NNE 18.5 mph 18.5 mph 36 % 0.0 in 251.0 W/m2 CLR
17:11 13.3 °F -1.8 °F 1012.8 in NNE 18.5 mph 18.5 mph 35 % 0.0 in 232.0 W/m2 CLR
17:16 13.3 °F -1.4 °F 1012.8 in NNW 13.0 mph 13.0 mph 36 % 0.0 in 216.0 W/m2 CLR
17:21 13.3 °F -1.4 °F 1012.8 in North 13.0 mph 13.0 mph 36 % 0.0 in 199.0 W/m2 CLR
17:26 12.8 °F -1.9 °F 1012.8 in NNW 16.7 mph 16.7 mph 36 % 0.0 in 181.0 W/m2 CLR
17:31 12.8 °F -2.3 °F 1012.8 in NNW 11.1 mph 11.1 mph 35 % 0.0 in 163.0 W/m2 CLR
17:36 12.8 °F -2.3 °F 1012.8 in North 11.1 mph 11.1 mph 35 % 0.0 in 142.0 W/m2 CLR
17:41 12.2 °F -2.8 °F 1012.8 in North 1.9 mph 1.9 mph 35 % 0.0 in 128.0 W/m2 CLR
17:46 12.2 °F -2.8 °F 1012.4 in NW 5.6 mph 5.6 mph 35 % 0.0 in 114.0 W/m2 CLR
17:51 12.2 °F -2.8 °F 1012.4 in NW 1.9 mph 1.9 mph 35 % 0.0 in 97.0 W/m2 CLR
17:56 12.2 °F -2.8 °F 1012.4 in NW 1.9 mph   35 % 0.0 in 79.0 W/m2 FEW
18:01 12.2 °F -2.8 °F 1012.4 in Calm     35 % 0.0 in 62.0 W/m2 SCT
18:06 11.7 °F -2.9 °F 1012.8 in NNW 1.9 mph   36 % 0.0 in 53.0 W/m2 SCT
18:11 11.7 °F -3.3 °F 1012.4 in Calm     35 % 0.0 in 39.0 W/m2 BKN
18:16 11.7 °F -3.3 °F 1012.4 in Calm     35 % 0.0 in 28.0 W/m2 BKN
18:21 10.6 °F -3.9 °F 1012.8 in Calm     36 % 0.0 in 21.0 W/m2 BKN
18:26 10.6 °F -3.9 °F 1012.4 in Calm     36 % 0.0 in 16.0 W/m2 BKN
18:31 10.0 °F -4.1 °F 1012.8 in Calm     37 % 0.0 in 12.0 W/m2 BKN
18:36 8.9 °F -4.3 °F 1012.8 in Calm     39 % 0.0 in 11.0 W/m2 BKN
18:41 8.3 °F -4.8 °F 1012.4 in Calm     39 % 0.0 in 7.0 W/m2 BKN
18:46 7.8 °F -5.0 °F 1012.4 in Calm     40 % 0.0 in 5.0 W/m2 OVC
18:51 7.2 °F -5.2 °F 1012.4 in Calm     41 % 0.0 in 0.0 W/m2 OVC
18:56 7.2 °F -4.8 °F 1012.4 in Calm     42 % 0.0 in 0.0 W/m2 CLR
19:01 7.2 °F -4.6 °F 1012.4 in Calm     43 % 0.0 in 0.0 W/m2 CLR
19:06 6.7 °F -5.1 °F 1012.8 in Calm     43 % 0.0 in 0.0 W/m2 CLR
19:11 6.7 °F -4.4 °F 1012.8 in Calm     45 % 0.0 in 0.0 W/m2 CLR
19:16 6.1 °F -4.9 °F 1012.8 in Calm     45 % 0.0 in 0.0 W/m2 CLR
19:21 6.7 °F -4.4 °F 1012.8 in Calm     45 % 0.0 in 0.0 W/m2 CLR
19:26 6.7 °F -3.9 °F 1012.8 in Calm     47 % 0.0 in 0.0 W/m2 CLR
19:31 6.7 °F -3.6 °F 1012.8 in Calm     48 % 0.0 in 0.0 W/m2 CLR
19:36 6.1 °F -3.8 °F 1012.8 in Calm     49 % 0.0 in 0.0 W/m2 CLR
19:41 5.6 °F -4.1 °F 1012.8 in Calm     50 % 0.0 in 0.0 W/m2 CLR
19:47 5.0 °F -4.6 °F 1012.8 in Calm     50 % 0.0 in 0.0 W/m2 CLR
19:52 5.0 °F -4.3 °F 1012.8 in Calm     51 % 0.0 in 0.0 W/m2 CLR
19:57 3.9 °F -5.3 °F 1012.8 in Calm     51 % 0.0 in 0.0 W/m2 CLR
20:02 3.9 °F -5.1 °F 1012.8 in Calm     52 % 0.0 in 0.0 W/m2 CLR
20:07 3.3 °F -5.3 °F 1012.8 in Calm     53 % 0.0 in 0.0 W/m2 CLR
20:12 3.3 °F -5.3 °F 1012.8 in Calm     53 % 0.0 in 0.0 W/m2 CLR
20:17 2.8 °F -5.9 °F 1012.8 in Calm     53 % 0.0 in 0.0 W/m2 CLR
20:22 2.8 °F -5.9 °F 1012.4 in Calm     53 % 0.0 in 0.0 W/m2 CLR
20:27 2.2 °F -6.4 °F 1012.8 in Calm     53 % 0.0 in 0.0 W/m2 CLR
20:32 2.2 °F -6.4 °F 1012.8 in Calm     53 % 0.0 in 0.0 W/m2 CLR
20:37 2.2 °F -6.2 °F 1012.4 in Calm     54 % 0.0 in 0.0 W/m2 CLR
20:42 1.7 °F -6.9 °F 1012.8 in WNW 1.9 mph 1.9 mph 53 % 0.0 in 0.0 W/m2 CLR
20:47 1.7 °F -7.2 °F 1012.8 in Calm     52 % 0.0 in 0.0 W/m2 CLR
20:52 1.7 °F -7.4 °F 1012.8 in WNW 1.9 mph 1.9 mph 51 % 0.0 in 0.0 W/m2 CLR
20:57 1.7 °F -7.4 °F 1012.8 in West 1.9 mph 1.9 mph 51 % 0.0 in 0.0 W/m2 CLR
21:02 1.7 °F -7.7 °F 1012.8 in WNW 1.9 mph 1.9 mph 50 % 0.0 in 0.0 W/m2 CLR
21:07 1.1 °F -8.4 °F 1012.8 in Calm     49 % 0.0 in 0.0 W/m2 CLR
21:12 1.1 °F -8.2 °F 1012.8 in Calm     50 % 0.0 in 0.0 W/m2 CLR
21:17 1.1 °F -7.9 °F 1012.8 in WNW 1.9 mph 1.9 mph 51 % 0.0 in 0.0 W/m2 CLR
21:22 1.1 °F -7.9 °F 1012.8 in WNW 18.5 mph 18.5 mph 51 % 0.0 in 0.0 W/m2 CLR
21:27 1.1 °F -8.4 °F 1012.4 in WNW 16.1 mph 16.1 mph 49 % 0.0 in 0.0 W/m2 CLR
21:32 1.1 °F -8.9 °F 1012.4 in NW 13.0 mph 13.0 mph 47 % 0.0 in 0.0 W/m2 CLR
21:37 1.1 °F -9.5 °F 1012.8 in NW 16.7 mph 16.7 mph 45 % 0.0 in 0.0 W/m2 CLR
21:42 1.1 °F -9.5 °F 1012.4 in NW 16.7 mph 16.7 mph 45 % 0.0 in 0.0 W/m2 CLR
21:47 0.6 °F -10.1 °F 1012.4 in NW 14.8 mph 14.8 mph 45 % 0.0 in 0.0 W/m2 CLR
21:54 0.6 °F -10.1 °F 1012.4 in NW 16.7 mph 16.7 mph 45 % 0.0 in 0.0 W/m2 CLR
21:59 0.6 °F -10.1 °F 1012.8 in WNW 13.0 mph 13.0 mph 45 % 0.0 in 0.0 W/m2 CLR
22:04 0.6 °F -10.3 °F 1012.8 in NW 16.7 mph 16.7 mph 44 % 0.0 in 0.0 W/m2 CLR
22:09 0.0 °F -10.8 °F 1012.8 in NW 20.4 mph 20.4 mph 44 % 0.0 in 0.0 W/m2 CLR
22:14 0.0 °F -10.8 °F 1012.8 in NW 18.5 mph 18.5 mph 44 % 0.0 in 0.0 W/m2 CLR
22:19 0.6 °F -10.1 °F 1012.4 in NW 18.5 mph 18.5 mph 45 % 0.0 in 0.0 W/m2 CLR
22:24 0.6 °F -10.1 °F 1012.4 in NW 18.5 mph 18.5 mph 45 % 0.0 in 0.0 W/m2 CLR
22:29 0.6 °F -10.1 °F 1012.8 in NW 19.3 mph 19.3 mph 45 % 0.0 in 0.0 W/m2 CLR
22:34 1.1 °F -9.5 °F 1012.8 in WNW 16.7 mph 16.7 mph 45 % 0.0 in 0.0 W/m2 CLR
22:39 1.1 °F -9.5 °F 1012.8 in NW 16.7 mph 16.7 mph 45 % 0.0 in 0.0 W/m2 CLR
22:44 1.1 °F -9.5 °F 1012.8 in NW 16.7 mph 16.7 mph 45 % 0.0 in 0.0 W/m2 CLR
22:49 1.1 °F -9.5 °F 1012.4 in NW 18.5 mph 18.5 mph 45 % 0.0 in 0.0 W/m2 CLR
22:54 0.6 °F -9.8 °F 1012.8 in NW 14.5 mph 14.5 mph 46 % 0.0 in 0.0 W/m2 CLR
22:59 0.6 °F -9.8 °F 1012.8 in NW 13.0 mph 13.0 mph 46 % 0.0 in 0.0 W/m2 CLR
23:04 0.6 °F -9.8 °F 1012.8 in WNW 14.8 mph 14.8 mph 46 % 0.0 in 0.0 W/m2 CLR
23:09 0.0 °F -10.3 °F 1012.8 in WNW 14.8 mph 14.8 mph 46 % 0.0 in 0.0 W/m2 CLR
23:14 0.0 °F -10.3 °F 1012.8 in WNW 12.9 mph 12.9 mph 46 % 0.0 in 0.0 W/m2 CLR
23:19 0.6 °F -9.8 °F 1012.8 in NW 18.5 mph 18.5 mph 46 % 0.0 in 0.0 W/m2 CLR
23:24 0.6 °F -9.8 °F 1012.8 in NW 18.5 mph 18.5 mph 46 % 0.0 in 0.0 W/m2 CLR
23:29 0.6 °F -9.8 °F 1012.8 in NW 18.5 mph 18.5 mph 46 % 0.0 in 0.0 W/m2 CLR
23:34 2.2 °F -7.9 °F 1012.8 in NNW 16.1 mph 16.1 mph 47 % 0.0 in 0.0 W/m2 CLR
23:39 2.8 °F -7.4 °F 1012.8 in NNW 22.2 mph 22.2 mph 47 % 0.0 in 0.0 W/m2 CLR
23:44 3.9 °F -6.4 °F 1012.8 in NW 19.3 mph 19.3 mph 47 % 0.0 in 0.0 W/m2 CLR
23:49 5.6 °F -4.9 °F 1012.8 in NW 18.5 mph 18.5 mph 47 % 0.0 in 0.0 W/m2 CLR
23:54 6.7 °F -3.9 °F 1012.8 in NW 20.4 mph 20.4 mph 47 % 0.0 in 0.0 W/m2 CLR
23:59 7.2 °F -3.3 °F 1012.8 in NW 20.4 mph 20.4 mph 47 % 0.0 in 0.0 W/m2 CLR
Lo Temps de Massalio
Compliments of Weather Underground - 1.25 mb